createdAt,value
2022-08-20T06:19:49.793Z,99.90
2022-08-20T06:24:43.620Z,99.90
2022-08-20T06:50:15.634Z,99.90
2022-08-20T06:55:11.657Z,99.90
2022-08-20T07:00:06.445Z,99.90
2022-08-20T07:05:00.419Z,99.90
2022-08-20T07:10:02.514Z,99.90
2022-08-20T07:14:56.307Z,99.90
2022-08-20T07:19:49.872Z,99.90
2022-08-20T07:24:48.535Z,99.90
2022-08-20T07:30:01.718Z,99.90
2022-08-20T07:34:55.377Z,99.90
2022-08-20T07:39:50.591Z,99.90
2022-08-20T07:44:45.586Z,99.90
2022-08-20T07:49:39.828Z,99.90
2022-08-20T07:54:33.359Z,99.90
2022-08-20T07:59:26.968Z,99.90
2022-08-20T08:04:22.251Z,99.90
2022-08-20T08:09:16.503Z,99.90
2022-08-20T08:14:11.701Z,99.90
2022-08-20T08:19:12.129Z,99.90
2022-08-20T08:24:07.847Z,99.90
2022-08-20T08:29:01.442Z,99.90
2022-08-20T08:33:55.437Z,99.90
2022-08-20T08:38:49.081Z,99.90
2022-08-20T08:43:47.309Z,99.90
2022-08-20T08:48:44.617Z,99.10
2022-08-20T08:53:42.310Z,99.50
2022-08-20T08:58:36.475Z,94.90
2022-08-20T09:03:34.635Z,94.20
2022-08-20T09:08:33.494Z,94.10
2022-08-20T09:13:27.004Z,92.80
2022-08-20T09:18:20.554Z,91.50
2022-08-20T09:23:15.512Z,91.20
2022-08-20T09:28:09.203Z,91.20
2022-08-20T09:33:03.626Z,91.90
2022-08-20T09:37:57.573Z,94.20
2022-08-20T09:42:53.560Z,94.30
2022-08-20T09:47:56.665Z,95.70
2022-08-20T09:52:52.888Z,96.40
2022-08-20T09:57:48.516Z,96.70
2022-08-20T10:02:43.550Z,96.60
2022-08-20T10:07:38.472Z,96.20
2022-08-20T10:12:31.994Z,96.20
2022-08-20T10:17:26.303Z,96.90
2022-08-20T10:22:21.409Z,96.90
2022-08-20T10:27:15.452Z,94.10
2022-08-20T10:32:14.294Z,94.20
2022-08-20T10:37:09.248Z,93.50
2022-08-20T10:42:04.297Z,93.80
2022-08-20T10:47:00.706Z,94.40
2022-08-20T10:51:54.323Z,94.80
2022-08-20T10:56:47.841Z,94.60
2022-08-20T11:01:42.771Z,94.70
2022-08-20T11:06:36.346Z,94.40
2022-08-20T11:11:29.823Z,95.20
2022-08-20T11:16:24.569Z,95.20
2022-08-20T11:21:19.659Z,95.70
2022-08-20T11:26:22.819Z,95.50
2022-08-20T11:31:16.366Z,95.50
2022-08-20T11:36:10.565Z,94.90
2022-08-20T11:41:12.798Z,95.00
2022-08-20T11:46:07.256Z,94.40
2022-08-20T11:51:01.239Z,94.70
2022-08-20T11:55:55.455Z,93.60
2022-08-20T12:06:09.054Z,94.00
2022-08-20T12:11:04.423Z,93.90
2022-08-20T12:16:00.981Z,93.00
2022-08-20T12:20:58.032Z,92.40
2022-08-20T12:25:53.471Z,92.40
2022-08-20T12:30:47.620Z,91.30
2022-08-20T12:35:42.657Z,90.90
2022-08-20T12:40:36.789Z,88.60
2022-08-20T12:45:30.597Z,88.50
2022-08-20T12:50:31.317Z,87.00
2022-08-20T12:55:26.836Z,89.10
2022-08-20T13:00:24.795Z,87.60
2022-08-20T13:05:19.378Z,82.60
2022-08-20T13:10:14.976Z,82.70
2022-08-20T13:15:11.403Z,83.40
2022-08-20T13:20:11.944Z,83.50
2022-08-20T13:25:06.597Z,81.50
2022-08-20T13:30:00.301Z,82.00
2022-08-20T13:34:55.357Z,81.50
2022-08-20T13:40:00.131Z,80.90
2022-08-20T13:44:54.294Z,80.90
2022-08-20T13:49:49.274Z,80.90
2022-08-20T13:54:44.268Z,79.00
2022-08-20T13:59:39.106Z,79.20
2022-08-20T14:04:33.264Z,78.20
2022-08-20T14:09:26.916Z,76.60
2022-08-20T14:14:23.376Z,79.00
2022-08-20T14:19:16.994Z,77.60
2022-08-20T14:24:10.859Z,77.10
2022-08-20T14:29:04.798Z,79.30
2022-08-20T14:33:59.946Z,80.30
2022-08-20T14:38:53.466Z,81.00
2022-08-20T14:43:46.953Z,81.80
2022-08-20T14:48:40.469Z,81.90
2022-08-20T14:53:40.633Z,82.00
2022-08-20T14:58:34.408Z,82.80
2022-08-20T15:03:31.234Z,83.30
2022-08-20T15:08:28.900Z,83.60
2022-08-20T15:13:24.681Z,83.60
2022-08-20T15:18:19.298Z,84.70
2022-08-20T15:23:12.894Z,84.10
2022-08-20T15:28:09.470Z,84.20
2022-08-20T15:33:06.215Z,85.10
2022-08-20T15:38:01.010Z,84.70
2022-08-20T15:42:54.622Z,85.60
2022-08-20T15:47:55.737Z,87.90
2022-08-20T15:52:51.309Z,88.80
2022-08-20T15:57:56.632Z,88.10
2022-08-20T16:03:29.066Z,90.00
2022-08-20T16:08:49.968Z,90.40
2022-08-20T16:13:49.376Z,90.90
2022-08-20T16:18:43.726Z,90.40
2022-08-20T16:23:40.606Z,88.00
2022-08-20T16:29:03.127Z,86.50
2022-08-20T16:34:03.326Z,85.10
2022-08-20T16:39:03.009Z,85.30
2022-08-20T16:44:02.204Z,85.70
2022-08-20T16:48:58.966Z,87.50
2022-08-20T16:53:54.034Z,87.90
2022-08-20T16:58:47.875Z,88.40
2022-08-20T17:03:51.069Z,88.20
2022-08-20T17:08:50.837Z,87.50
2022-08-20T17:13:46.828Z,88.50
2022-08-20T17:18:44.297Z,88.60
2022-08-20T17:23:55.278Z,90.20
2022-08-20T17:28:54.658Z,90.60
2022-08-20T17:33:49.693Z,92.20
2022-08-20T17:38:49.874Z,93.20
2022-08-20T17:43:45.817Z,93.90
2022-08-20T17:48:43.832Z,95.00
2022-08-20T17:53:41.708Z,96.30
2022-08-20T17:58:54.308Z,96.90
2022-08-20T18:03:50.164Z,97.50
2022-08-20T18:08:57.367Z,98.50
2022-08-20T18:14:01.659Z,99.30
2022-08-20T18:18:59.609Z,96.10
2022-08-20T18:23:59.781Z,95.40
2022-08-20T18:29:00.754Z,94.60
2022-08-20T18:33:55.005Z,94.20
2022-08-20T18:39:03.277Z,94.70
2022-08-20T18:44:06.598Z,94.00
2022-08-20T18:49:03.015Z,94.20
2022-08-20T18:53:58.550Z,94.00
2022-08-20T18:58:59.431Z,94.30
2022-08-20T19:03:55.755Z,94.80
2022-08-20T19:08:54.063Z,94.80
2022-08-20T19:14:12.547Z,94.70
2022-08-20T19:19:06.152Z,94.50
2022-08-20T19:24:03.494Z,94.70
2022-08-20T19:29:01.839Z,94.90
2022-08-20T19:34:07.289Z,95.10
